sensor_id;sensor_type;location;lat;lon;timestamp;P1;durP1;ratioP1;P2;durP2;ratioP2
31638;SDS011;18248;51.522;7.020;2022-08-04T00:01:23;12.73;;;2.88;;
31638;SDS011;18248;51.522;7.020;2022-08-04T00:10:47;8.02;;;2.92;;
31638;SDS011;18248;51.522;7.020;2022-08-04T00:13:52;9.50;;;2.70;;
31638;SDS011;18248;51.522;7.020;2022-08-04T00:16:54;12.80;;;2.90;;
31638;SDS011;18248;51.522;7.020;2022-08-04T00:19:55;10.30;;;2.83;;
31638;SDS011;18248;51.522;7.020;2022-08-04T00:22:57;20.02;;;2.90;;
31638;SDS011;18248;51.522;7.020;2022-08-04T00:25:57;10.32;;;2.83;;
31638;SDS011;18248;51.522;7.020;2022-08-04T00:28:57;9.32;;;3.25;;
31638;SDS011;18248;51.522;7.020;2022-08-04T00:31:57;6.97;;;2.38;;
31638;SDS011;18248;51.522;7.020;2022-08-04T00:34:56;8.25;;;2.83;;
31638;SDS011;18248;51.522;7.020;2022-08-04T00:37:55;16.00;;;3.35;;
31638;SDS011;18248;51.522;7.020;2022-08-04T00:41:11;12.60;;;3.60;;
31638;SDS011;18248;51.522;7.020;2022-08-04T00:54:36;16.98;;;4.18;;
31638;SDS011;18248;51.522;7.020;2022-08-04T01:01:25;14.50;;;3.65;;
31638;SDS011;18248;51.522;7.020;2022-08-04T01:04:41;12.20;;;3.15;;
31638;SDS011;18248;51.522;7.020;2022-08-04T01:11:04;11.50;;;3.25;;
31638;SDS011;18248;51.522;7.020;2022-08-04T01:14:34;10.50;;;2.92;;
31638;SDS011;18248;51.522;7.020;2022-08-04T01:17:56;13.63;;;3.00;;
31638;SDS011;18248;51.522;7.020;2022-08-04T01:21:02;19.27;;;3.53;;
31638;SDS011;18248;51.522;7.020;2022-08-04T01:24:13;11.40;;;3.05;;
31638;SDS011;18248;51.522;7.020;2022-08-04T01:31:21;14.55;;;3.10;;
31638;SDS011;18248;51.522;7.020;2022-08-04T01:34:35;12.25;;;3.05;;
31638;SDS011;18248;51.522;7.020;2022-08-04T01:37:56;9.98;;;2.90;;
31638;SDS011;18248;51.522;7.020;2022-08-04T01:41:15;10.48;;;2.85;;
31638;SDS011;18248;51.522;7.020;2022-08-04T01:44:16;12.25;;;3.17;;
31638;SDS011;18248;51.522;7.020;2022-08-04T01:47:18;12.73;;;3.30;;
31638;SDS011;18248;51.522;7.020;2022-08-04T01:50:18;16.50;;;3.38;;
31638;SDS011;18248;51.522;7.020;2022-08-04T01:53:18;12.57;;;2.72;;
31638;SDS011;18248;51.522;7.020;2022-08-04T01:56:18;13.55;;;3.50;;
31638;SDS011;18248;51.522;7.020;2022-08-04T01:59:18;8.57;;;3.10;;
31638;SDS011;18248;51.522;7.020;2022-08-04T02:02:21;12.02;;;3.63;;
31638;SDS011;18248;51.522;7.020;2022-08-04T02:05:22;11.63;;;3.97;;
31638;SDS011;18248;51.522;7.020;2022-08-04T02:08:36;13.52;;;3.13;;
31638;SDS011;18248;51.522;7.020;2022-08-04T02:11:48;10.27;;;3.83;;
31638;SDS011;18248;51.522;7.020;2022-08-04T02:21:07;13.07;;;4.15;;
31638;SDS011;18248;51.522;7.020;2022-08-04T02:24:07;15.68;;;3.50;;
31638;SDS011;18248;51.522;7.020;2022-08-04T02:27:12;13.25;;;3.55;;
31638;SDS011;18248;51.522;7.020;2022-08-04T02:30:11;12.50;;;3.65;;
31638;SDS011;18248;51.522;7.020;2022-08-04T02:33:11;14.15;;;4.10;;
31638;SDS011;18248;51.522;7.020;2022-08-04T02:36:13;12.35;;;3.65;;
31638;SDS011;18248;51.522;7.020;2022-08-04T02:39:19;11.73;;;3.67;;
31638;SDS011;18248;51.522;7.020;2022-08-04T02:42:19;15.93;;;3.33;;
31638;SDS011;18248;51.522;7.020;2022-08-04T02:45:18;16.27;;;4.50;;
31638;SDS011;18248;51.522;7.020;2022-08-04T02:48:19;19.48;;;4.10;;
31638;SDS011;18248;51.522;7.020;2022-08-04T02:51:26;29.98;;;4.95;;
31638;SDS011;18248;51.522;7.020;2022-08-04T02:54:29;23.33;;;4.88;;
31638;SDS011;18248;51.522;7.020;2022-08-04T02:57:31;16.48;;;4.57;;
31638;SDS011;18248;51.522;7.020;2022-08-04T03:00:32;13.52;;;4.20;;
31638;SDS011;18248;51.522;7.020;2022-08-04T03:03:52;17.30;;;4.10;;
31638;SDS011;18248;51.522;7.020;2022-08-04T03:06:58;8.77;;;3.15;;
31638;SDS011;18248;51.522;7.020;2022-08-04T03:14:42;12.02;;;3.17;;
31638;SDS011;18248;51.522;7.020;2022-08-04T03:24:43;15.67;;;3.80;;
31638;SDS011;18248;51.522;7.020;2022-08-04T03:51:37;22.60;;;4.55;;
31638;SDS011;18248;51.522;7.020;2022-08-04T03:55:23;25.42;;;5.20;;
31638;SDS011;18248;51.522;7.020;2022-08-04T04:05:35;16.75;;;4.30;;
31638;SDS011;18248;51.522;7.020;2022-08-04T04:22:20;14.15;;;3.70;;
31638;SDS011;18248;51.522;7.020;2022-08-04T04:25:33;18.23;;;3.50;;
31638;SDS011;18248;51.522;7.020;2022-08-04T04:28:47;11.75;;;2.90;;
31638;SDS011;18248;51.522;7.020;2022-08-04T04:35:34;15.93;;;3.95;;
31638;SDS011;18248;51.522;7.020;2022-08-04T04:42:06;11.95;;;3.45;;
31638;SDS011;18248;51.522;7.020;2022-08-04T04:48:53;15.90;;;3.92;;
31638;SDS011;18248;51.522;7.020;2022-08-04T04:52:24;13.15;;;3.65;;
31638;SDS011;18248;51.522;7.020;2022-08-04T04:55:27;8.52;;;3.38;;
31638;SDS011;18248;51.522;7.020;2022-08-04T04:58:32;12.32;;;3.28;;
31638;SDS011;18248;51.522;7.020;2022-08-04T05:08:20;12.70;;;3.90;;
31638;SDS011;18248;51.522;7.020;2022-08-04T05:14:40;16.05;;;3.25;;
31638;SDS011;18248;51.522;7.020;2022-08-04T05:17:48;12.18;;;3.55;;
31638;SDS011;18248;51.522;7.020;2022-08-04T05:21:03;13.70;;;3.33;;
31638;SDS011;18248;51.522;7.020;2022-08-04T05:24:19;19.73;;;4.13;;
31638;SDS011;18248;51.522;7.020;2022-08-04T05:27:22;18.55;;;4.18;;
31638;SDS011;18248;51.522;7.020;2022-08-04T05:30:27;23.65;;;4.53;;
31638;SDS011;18248;51.522;7.020;2022-08-04T05:33:33;12.35;;;3.92;;
31638;SDS011;18248;51.522;7.020;2022-08-04T05:36:47;16.75;;;3.47;;
31638;SDS011;18248;51.522;7.020;2022-08-04T05:39:49;12.68;;;4.50;;
31638;SDS011;18248;51.522;7.020;2022-08-04T05:42:52;14.35;;;3.67;;
31638;SDS011;18248;51.522;7.020;2022-08-04T05:45:53;16.27;;;3.95;;
31638;SDS011;18248;51.522;7.020;2022-08-04T05:48:54;13.73;;;3.63;;
31638;SDS011;18248;51.522;7.020;2022-08-04T05:51:54;13.07;;;3.60;;
31638;SDS011;18248;51.522;7.020;2022-08-04T05:54:59;9.10;;;3.08;;
31638;SDS011;18248;51.522;7.020;2022-08-04T05:57:58;13.25;;;3.55;;
31638;SDS011;18248;51.522;7.020;2022-08-04T06:00:59;11.20;;;3.10;;
31638;SDS011;18248;51.522;7.020;2022-08-04T06:03:59;13.82;;;3.47;;
31638;SDS011;18248;51.522;7.020;2022-08-04T06:07:00;14.98;;;3.97;;
31638;SDS011;18248;51.522;7.020;2022-08-04T06:09:59;13.75;;;4.35;;
31638;SDS011;18248;51.522;7.020;2022-08-04T06:13:00;17.00;;;3.65;;
31638;SDS011;18248;51.522;7.020;2022-08-04T06:16:03;18.42;;;4.00;;
31638;SDS011;18248;51.522;7.020;2022-08-04T06:19:06;11.02;;;3.10;;
31638;SDS011;18248;51.522;7.020;2022-08-04T06:22:06;14.07;;;3.33;;
31638;SDS011;18248;51.522;7.020;2022-08-04T06:25:09;15.90;;;3.43;;
31638;SDS011;18248;51.522;7.020;2022-08-04T06:28:11;13.30;;;3.70;;
31638;SDS011;18248;51.522;7.020;2022-08-04T06:31:13;13.95;;;3.28;;
31638;SDS011;18248;51.522;7.020;2022-08-04T06:34:18;13.23;;;2.78;;
31638;SDS011;18248;51.522;7.020;2022-08-04T06:37:18;11.40;;;2.70;;
31638;SDS011;18248;51.522;7.020;2022-08-04T06:40:20;13.77;;;3.13;;
31638;SDS011;18248;51.522;7.020;2022-08-04T06:43:21;12.88;;;3.10;;
31638;SDS011;18248;51.522;7.020;2022-08-04T06:46:20;15.23;;;2.78;;
31638;SDS011;18248;51.522;7.020;2022-08-04T06:49:20;13.90;;;2.60;;
31638;SDS011;18248;51.522;7.020;2022-08-04T06:52:21;10.43;;;2.60;;
31638;SDS011;18248;51.522;7.020;2022-08-04T06:55:20;18.70;;;3.25;;
31638;SDS011;18248;51.522;7.020;2022-08-04T06:58:20;17.05;;;2.55;;
31638;SDS011;18248;51.522;7.020;2022-08-04T07:01:20;8.30;;;2.70;;
31638;SDS011;18248;51.522;7.020;2022-08-04T07:04:19;8.60;;;2.25;;
31638;SDS011;18248;51.522;7.020;2022-08-04T07:07:18;9.82;;;2.92;;
31638;SDS011;18248;51.522;7.020;2022-08-04T07:10:17;7.88;;;2.63;;
31638;SDS011;18248;51.522;7.020;2022-08-04T07:13:16;5.97;;;2.40;;
31638;SDS011;18248;51.522;7.020;2022-08-04T07:16:16;6.97;;;2.47;;
31638;SDS011;18248;51.522;7.020;2022-08-04T07:19:17;13.32;;;2.13;;
31638;SDS011;18248;51.522;7.020;2022-08-04T07:22:16;12.98;;;1.90;;
31638;SDS011;18248;51.522;7.020;2022-08-04T07:25:14;6.70;;;2.25;;
31638;SDS011;18248;51.522;7.020;2022-08-04T07:28:13;6.18;;;1.80;;
31638;SDS011;18248;51.522;7.020;2022-08-04T07:31:13;6.65;;;1.70;;
31638;SDS011;18248;51.522;7.020;2022-08-04T07:34:14;5.43;;;1.77;;
31638;SDS011;18248;51.522;7.020;2022-08-04T07:37:12;8.38;;;2.60;;
31638;SDS011;18248;51.522;7.020;2022-08-04T07:40:11;13.35;;;1.80;;
31638;SDS011;18248;51.522;7.020;2022-08-04T07:43:10;2.90;;;1.63;;
31638;SDS011;18248;51.522;7.020;2022-08-04T07:46:11;4.03;;;1.50;;
31638;SDS011;18248;51.522;7.020;2022-08-04T07:49:10;5.75;;;1.67;;
31638;SDS011;18248;51.522;7.020;2022-08-04T07:52:09;4.13;;;1.65;;
31638;SDS011;18248;51.522;7.020;2022-08-04T07:55:08;3.83;;;1.50;;
31638;SDS011;18248;51.522;7.020;2022-08-04T07:58:08;5.65;;;1.70;;
31638;SDS011;18248;51.522;7.020;2022-08-04T08:01:07;5.72;;;1.73;;
31638;SDS011;18248;51.522;7.020;2022-08-04T08:04:08;6.72;;;1.50;;
31638;SDS011;18248;51.522;7.020;2022-08-04T08:07:08;5.72;;;1.60;;
31638;SDS011;18248;51.522;7.020;2022-08-04T08:10:12;3.13;;;1.48;;
31638;SDS011;18248;51.522;7.020;2022-08-04T08:13:11;8.68;;;1.40;;
31638;SDS011;18248;51.522;7.020;2022-08-04T08:16:11;5.65;;;1.50;;
31638;SDS011;18248;51.522;7.020;2022-08-04T08:19:10;9.60;;;1.45;;
31638;SDS011;18248;51.522;7.020;2022-08-04T08:22:09;7.65;;;1.50;;
31638;SDS011;18248;51.522;7.020;2022-08-04T08:25:08;14.02;;;1.60;;
31638;SDS011;18248;51.522;7.020;2022-08-04T08:28:08;2.38;;;1.38;;
31638;SDS011;18248;51.522;7.020;2022-08-04T08:31:07;5.80;;;1.42;;
31638;SDS011;18248;51.522;7.020;2022-08-04T08:34:06;6.13;;;1.35;;
31638;SDS011;18248;51.522;7.020;2022-08-04T08:43:34;6.03;;;1.40;;
31638;SDS011;18248;51.522;7.020;2022-08-04T08:50:31;4.40;;;1.50;;
31638;SDS011;18248;51.522;7.020;2022-08-04T08:53:35;2.53;;;1.48;;
31638;SDS011;18248;51.522;7.020;2022-08-04T08:56:46;5.25;;;1.50;;
31638;SDS011;18248;51.522;7.020;2022-08-04T09:00:19;5.18;;;1.63;;
31638;SDS011;18248;51.522;7.020;2022-08-04T09:13:16;5.03;;;1.65;;
31638;SDS011;18248;51.522;7.020;2022-08-04T09:19:38;9.30;;;1.70;;
31638;SDS011;18248;51.522;7.020;2022-08-04T09:22:44;9.48;;;2.00;;
31638;SDS011;18248;51.522;7.020;2022-08-04T09:26:03;4.53;;;1.60;;
31638;SDS011;18248;51.522;7.020;2022-08-04T09:35:47;3.70;;;1.70;;
31638;SDS011;18248;51.522;7.020;2022-08-04T09:39:10;7.68;;;1.73;;
31638;SDS011;18248;51.522;7.020;2022-08-04T09:42:31;4.57;;;1.90;;
31638;SDS011;18248;51.522;7.020;2022-08-04T09:45:57;7.30;;;1.90;;
31638;SDS011;18248;51.522;7.020;2022-08-04T09:49:18;7.80;;;1.98;;
31638;SDS011;18248;51.522;7.020;2022-08-04T09:52:40;9.77;;;2.25;;
31638;SDS011;18248;51.522;7.020;2022-08-04T09:56:13;7.32;;;2.10;;
31638;SDS011;18248;51.522;7.020;2022-08-04T09:59:40;8.23;;;2.08;;
31638;SDS011;18248;51.522;7.020;2022-08-04T10:03:01;5.07;;;2.10;;
31638;SDS011;18248;51.522;7.020;2022-08-04T10:19:59;5.38;;;2.38;;
31638;SDS011;18248;51.522;7.020;2022-08-04T10:29:48;13.63;;;2.50;;
31638;SDS011;18248;51.522;7.020;2022-08-04T10:36:02;7.47;;;1.80;;
31638;SDS011;18248;51.522;7.020;2022-08-04T10:39:07;9.45;;;2.08;;
31638;SDS011;18248;51.522;7.020;2022-08-04T10:42:20;14.38;;;2.67;;
31638;SDS011;18248;51.522;7.020;2022-08-04T10:45:25;9.55;;;2.33;;
31638;SDS011;18248;51.522;7.020;2022-08-04T10:51:49;6.10;;;2.20;;
31638;SDS011;18248;51.522;7.020;2022-08-04T10:58:20;8.60;;;1.90;;
31638;SDS011;18248;51.522;7.020;2022-08-04T11:01:31;5.28;;;1.95;;
31638;SDS011;18248;51.522;7.020;2022-08-04T11:04:36;11.02;;;1.95;;
31638;SDS011;18248;51.522;7.020;2022-08-04T11:07:42;7.43;;;2.00;;
31638;SDS011;18248;51.522;7.020;2022-08-04T11:10:46;8.00;;;1.60;;
31638;SDS011;18248;51.522;7.020;2022-08-04T11:14:05;6.25;;;1.70;;
31638;SDS011;18248;51.522;7.020;2022-08-04T11:17:08;8.80;;;1.95;;
31638;SDS011;18248;51.522;7.020;2022-08-04T11:20:16;12.98;;;1.60;;
31638;SDS011;18248;51.522;7.020;2022-08-04T11:23:18;7.13;;;1.60;;
31638;SDS011;18248;51.522;7.020;2022-08-04T11:30:04;9.75;;;1.90;;
31638;SDS011;18248;51.522;7.020;2022-08-04T11:33:20;7.57;;;1.70;;
31638;SDS011;18248;51.522;7.020;2022-08-04T11:39:41;6.53;;;1.50;;
31638;SDS011;18248;51.522;7.020;2022-08-04T11:42:51;9.82;;;1.63;;
31638;SDS011;18248;51.522;7.020;2022-08-04T11:45:53;7.60;;;1.35;;
31638;SDS011;18248;51.522;7.020;2022-08-04T11:49:11;5.78;;;1.20;;
31638;SDS011;18248;51.522;7.020;2022-08-04T11:52:18;17.20;;;1.88;;
31638;SDS011;18248;51.522;7.020;2022-08-04T11:55:17;12.80;;;2.08;;
31638;SDS011;18248;51.522;7.020;2022-08-04T11:58:19;10.38;;;2.13;;
31638;SDS011;18248;51.522;7.020;2022-08-04T12:04:49;14.75;;;2.60;;
31638;SDS011;18248;51.522;7.020;2022-08-04T12:14:57;8.20;;;1.98;;
31638;SDS011;18248;51.522;7.020;2022-08-04T12:21:05;7.68;;;2.08;;
31638;SDS011;18248;51.522;7.020;2022-08-04T12:24:13;17.92;;;2.33;;
31638;SDS011;18248;51.522;7.020;2022-08-04T12:27:17;11.30;;;2.08;;
31638;SDS011;18248;51.522;7.020;2022-08-04T12:30:20;13.50;;;2.33;;
31638;SDS011;18248;51.522;7.020;2022-08-04T12:33:23;12.60;;;2.30;;
31638;SDS011;18248;51.522;7.020;2022-08-04T12:39:40;14.45;;;2.20;;
31638;SDS011;18248;51.522;7.020;2022-08-04T12:42:45;11.30;;;2.50;;
31638;SDS011;18248;51.522;7.020;2022-08-04T12:45:52;16.08;;;3.08;;
31638;SDS011;18248;51.522;7.020;2022-08-04T12:52:05;11.88;;;2.20;;
31638;SDS011;18248;51.522;7.020;2022-08-04T12:55:05;19.58;;;2.38;;
31638;SDS011;18248;51.522;7.020;2022-08-04T12:58:10;8.52;;;2.08;;
31638;SDS011;18248;51.522;7.020;2022-08-04T13:01:22;13.80;;;2.55;;
31638;SDS011;18248;51.522;7.020;2022-08-04T13:04:22;9.40;;;2.47;;
31638;SDS011;18248;51.522;7.020;2022-08-04T13:07:25;14.18;;;2.88;;
31638;SDS011;18248;51.522;7.020;2022-08-04T13:10:25;7.70;;;2.22;;
31638;SDS011;18248;51.522;7.020;2022-08-04T13:13:26;13.40;;;2.63;;
31638;SDS011;18248;51.522;7.020;2022-08-04T13:19:28;11.73;;;2.08;;
31638;SDS011;18248;51.522;7.020;2022-08-04T13:22:27;8.70;;;2.08;;
31638;SDS011;18248;51.522;7.020;2022-08-04T13:25:27;11.57;;;2.45;;
31638;SDS011;18248;51.522;7.020;2022-08-04T13:28:27;17.95;;;2.28;;
31638;SDS011;18248;51.522;7.020;2022-08-04T13:31:28;13.00;;;2.72;;
31638;SDS011;18248;51.522;7.020;2022-08-04T13:34:28;11.32;;;2.60;;
31638;SDS011;18248;51.522;7.020;2022-08-04T13:37:33;7.97;;;2.03;;
31638;SDS011;18248;51.522;7.020;2022-08-04T13:40:34;9.98;;;2.40;;
31638;SDS011;18248;51.522;7.020;2022-08-04T13:43:39;11.85;;;2.50;;
31638;SDS011;18248;51.522;7.020;2022-08-04T13:46:45;13.95;;;2.20;;
31638;SDS011;18248;51.522;7.020;2022-08-04T13:53:16;13.05;;;1.90;;
31638;SDS011;18248;51.522;7.020;2022-08-04T13:56:15;12.57;;;2.13;;
31638;SDS011;18248;51.522;7.020;2022-08-04T13:59:15;10.02;;;1.90;;
31638;SDS011;18248;51.522;7.020;2022-08-04T14:02:30;11.75;;;2.47;;
31638;SDS011;18248;51.522;7.020;2022-08-04T14:09:14;11.32;;;1.70;;
31638;SDS011;18248;51.522;7.020;2022-08-04T14:12:14;10.35;;;2.60;;
31638;SDS011;18248;51.522;7.020;2022-08-04T14:15:30;8.95;;;1.90;;
31638;SDS011;18248;51.522;7.020;2022-08-04T14:18:30;6.80;;;1.77;;
31638;SDS011;18248;51.522;7.020;2022-08-04T14:21:34;10.77;;;2.40;;
31638;SDS011;18248;51.522;7.020;2022-08-04T14:24:33;10.07;;;3.10;;
31638;SDS011;18248;51.522;7.020;2022-08-04T14:27:41;8.77;;;2.08;;
31638;SDS011;18248;51.522;7.020;2022-08-04T14:30:41;9.48;;;2.08;;
31638;SDS011;18248;51.522;7.020;2022-08-04T14:33:40;5.28;;;1.98;;
31638;SDS011;18248;51.522;7.020;2022-08-04T14:36:41;8.20;;;2.38;;
31638;SDS011;18248;51.522;7.020;2022-08-04T14:39:41;12.20;;;5.13;;
31638;SDS011;18248;51.522;7.020;2022-08-04T14:42:45;10.95;;;2.72;;
31638;SDS011;18248;51.522;7.020;2022-08-04T14:45:44;6.35;;;2.22;;
31638;SDS011;18248;51.522;7.020;2022-08-04T14:51:59;6.80;;;2.63;;
31638;SDS011;18248;51.522;7.020;2022-08-04T14:55:15;13.23;;;5.20;;
31638;SDS011;18248;51.522;7.020;2022-08-04T14:58:31;8.23;;;4.40;;
31638;SDS011;18248;51.522;7.020;2022-08-04T15:01:30;6.22;;;2.17;;
31638;SDS011;18248;51.522;7.020;2022-08-04T15:04:29;20.42;;;9.70;;
31638;SDS011;18248;51.522;7.020;2022-08-04T15:07:28;13.02;;;4.03;;
31638;SDS011;18248;51.522;7.020;2022-08-04T15:10:28;11.77;;;3.72;;
31638;SDS011;18248;51.522;7.020;2022-08-04T15:13:27;9.48;;;2.03;;
31638;SDS011;18248;51.522;7.020;2022-08-04T15:16:28;8.23;;;4.68;;
31638;SDS011;18248;51.522;7.020;2022-08-04T15:19:28;6.50;;;2.70;;
31638;SDS011;18248;51.522;7.020;2022-08-04T15:22:28;9.23;;;2.83;;
31638;SDS011;18248;51.522;7.020;2022-08-04T15:25:27;4.20;;;1.80;;
31638;SDS011;18248;51.522;7.020;2022-08-04T15:28:29;5.63;;;3.00;;
31638;SDS011;18248;51.522;7.020;2022-08-04T15:31:30;8.15;;;2.20;;
31638;SDS011;18248;51.522;7.020;2022-08-04T15:37:45;5.28;;;1.90;;
31638;SDS011;18248;51.522;7.020;2022-08-04T15:41:01;7.22;;;1.60;;
31638;SDS011;18248;51.522;7.020;2022-08-04T15:47:18;10.90;;;1.98;;
31638;SDS011;18248;51.522;7.020;2022-08-04T15:50:17;4.97;;;1.70;;
31638;SDS011;18248;51.522;7.020;2022-08-04T15:53:16;5.82;;;1.65;;
31638;SDS011;18248;51.522;7.020;2022-08-04T16:02:52;4.60;;;1.77;;
31638;SDS011;18248;51.522;7.020;2022-08-04T16:05:52;5.03;;;1.40;;
31638;SDS011;18248;51.522;7.020;2022-08-04T16:11:52;6.63;;;1.60;;
31638;SDS011;18248;51.522;7.020;2022-08-04T16:14:51;5.18;;;1.60;;
31638;SDS011;18248;51.522;7.020;2022-08-04T16:17:50;4.72;;;1.67;;
31638;SDS011;18248;51.522;7.020;2022-08-04T16:20:49;2.42;;;1.40;;
31638;SDS011;18248;51.522;7.020;2022-08-04T16:24:05;12.13;;;1.70;;
31638;SDS011;18248;51.522;7.020;2022-08-04T16:27:11;11.15;;;2.00;;
31638;SDS011;18248;51.522;7.020;2022-08-04T16:30:11;5.47;;;1.80;;
31638;SDS011;18248;51.522;7.020;2022-08-04T16:33:11;6.97;;;2.00;;
31638;SDS011;18248;51.522;7.020;2022-08-04T16:36:12;6.63;;;1.70;;
31638;SDS011;18248;51.522;7.020;2022-08-04T16:45:38;8.15;;;2.00;;
31638;SDS011;18248;51.522;7.020;2022-08-04T16:49:06;5.22;;;1.52;;
31638;SDS011;18248;51.522;7.020;2022-08-04T16:52:05;10.07;;;1.88;;
31638;SDS011;18248;51.522;7.020;2022-08-04T16:55:05;7.70;;;1.95;;
31638;SDS011;18248;51.522;7.020;2022-08-04T16:58:04;5.22;;;1.50;;
31638;SDS011;18248;51.522;7.020;2022-08-04T17:01:07;7.63;;;2.20;;
31638;SDS011;18248;51.522;7.020;2022-08-04T17:04:07;7.53;;;2.10;;
31638;SDS011;18248;51.522;7.020;2022-08-04T17:07:08;5.10;;;2.30;;
31638;SDS011;18248;51.522;7.020;2022-08-04T17:10:07;8.13;;;1.85;;
31638;SDS011;18248;51.522;7.020;2022-08-04T17:16:25;5.95;;;1.75;;
31638;SDS011;18248;51.522;7.020;2022-08-04T17:19:27;10.60;;;2.13;;
31638;SDS011;18248;51.522;7.020;2022-08-04T17:22:25;11.55;;;1.88;;
31638;SDS011;18248;51.522;7.020;2022-08-04T17:25:24;6.57;;;1.88;;
31638;SDS011;18248;51.522;7.020;2022-08-04T17:28:23;7.50;;;2.05;;
31638;SDS011;18248;51.522;7.020;2022-08-04T17:31:22;4.95;;;1.98;;
31638;SDS011;18248;51.522;7.020;2022-08-04T17:34:22;7.97;;;2.67;;
31638;SDS011;18248;51.522;7.020;2022-08-04T17:37:23;8.00;;;2.20;;
31638;SDS011;18248;51.522;7.020;2022-08-04T17:40:21;12.95;;;2.38;;
31638;SDS011;18248;51.522;7.020;2022-08-04T17:43:20;4.25;;;1.80;;
31638;SDS011;18248;51.522;7.020;2022-08-04T17:46:53;9.77;;;2.43;;
31638;SDS011;18248;51.522;7.020;2022-08-04T17:50:04;6.20;;;2.00;;
31638;SDS011;18248;51.522;7.020;2022-08-04T17:53:04;8.93;;;2.10;;
31638;SDS011;18248;51.522;7.020;2022-08-04T17:56:03;7.45;;;2.15;;
31638;SDS011;18248;51.522;7.020;2022-08-04T17:59:12;4.18;;;2.00;;
31638;SDS011;18248;51.522;7.020;2022-08-04T18:02:20;9.88;;;2.55;;
31638;SDS011;18248;51.522;7.020;2022-08-04T18:05:26;7.22;;;2.50;;
31638;SDS011;18248;51.522;7.020;2022-08-04T18:08:26;6.35;;;2.45;;
31638;SDS011;18248;51.522;7.020;2022-08-04T18:11:25;9.05;;;2.63;;
31638;SDS011;18248;51.522;7.020;2022-08-04T18:14:24;14.25;;;2.50;;
31638;SDS011;18248;51.522;7.020;2022-08-04T18:17:34;11.32;;;2.20;;
31638;SDS011;18248;51.522;7.020;2022-08-04T18:20:37;10.98;;;3.00;;
31638;SDS011;18248;51.522;7.020;2022-08-04T18:23:35;8.57;;;2.72;;
31638;SDS011;18248;51.522;7.020;2022-08-04T18:26:34;10.27;;;2.72;;
31638;SDS011;18248;51.522;7.020;2022-08-04T18:29:35;11.13;;;2.55;;
31638;SDS011;18248;51.522;7.020;2022-08-04T18:32:33;11.35;;;2.70;;
31638;SDS011;18248;51.522;7.020;2022-08-04T18:35:32;7.75;;;2.83;;
31638;SDS011;18248;51.522;7.020;2022-08-04T18:38:33;6.85;;;2.33;;
31638;SDS011;18248;51.522;7.020;2022-08-04T18:41:31;5.00;;;2.42;;
31638;SDS011;18248;51.522;7.020;2022-08-04T18:44:31;11.63;;;2.78;;
31638;SDS011;18248;51.522;7.020;2022-08-04T18:47:30;8.32;;;2.80;;
31638;SDS011;18248;51.522;7.020;2022-08-04T18:50:29;7.88;;;2.00;;
31638;SDS011;18248;51.522;7.020;2022-08-04T18:53:27;10.05;;;2.92;;
31638;SDS011;18248;51.522;7.020;2022-08-04T18:56:27;8.15;;;2.42;;
31638;SDS011;18248;51.522;7.020;2022-08-04T18:59:27;8.70;;;2.58;;
31638;SDS011;18248;51.522;7.020;2022-08-04T19:02:25;10.77;;;2.70;;
31638;SDS011;18248;51.522;7.020;2022-08-04T19:05:24;9.70;;;2.60;;
31638;SDS011;18248;51.522;7.020;2022-08-04T19:08:23;9.77;;;3.08;;
31638;SDS011;18248;51.522;7.020;2022-08-04T19:11:21;9.43;;;4.25;;
31638;SDS011;18248;51.522;7.020;2022-08-04T19:14:20;12.48;;;4.30;;
31638;SDS011;18248;51.522;7.020;2022-08-04T19:17:18;8.68;;;3.30;;
31638;SDS011;18248;51.522;7.020;2022-08-04T19:20:17;8.52;;;3.05;;
31638;SDS011;18248;51.522;7.020;2022-08-04T19:23:16;7.40;;;2.90;;
31638;SDS011;18248;51.522;7.020;2022-08-04T19:26:14;7.55;;;2.78;;
31638;SDS011;18248;51.522;7.020;2022-08-04T19:29:13;10.55;;;2.40;;
31638;SDS011;18248;51.522;7.020;2022-08-04T19:32:12;8.90;;;2.53;;
31638;SDS011;18248;51.522;7.020;2022-08-04T19:35:10;6.10;;;2.20;;
31638;SDS011;18248;51.522;7.020;2022-08-04T19:38:09;9.85;;;2.78;;
31638;SDS011;18248;51.522;7.020;2022-08-04T19:41:08;8.57;;;2.80;;
31638;SDS011;18248;51.522;7.020;2022-08-04T19:44:07;7.65;;;2.67;;
31638;SDS011;18248;51.522;7.020;2022-08-04T19:47:07;6.00;;;2.25;;
31638;SDS011;18248;51.522;7.020;2022-08-04T19:50:06;5.45;;;2.50;;
31638;SDS011;18248;51.522;7.020;2022-08-04T19:53:05;10.80;;;2.78;;
31638;SDS011;18248;51.522;7.020;2022-08-04T19:56:04;8.38;;;2.67;;
31638;SDS011;18248;51.522;7.020;2022-08-04T19:59:03;5.45;;;2.47;;
31638;SDS011;18248;51.522;7.020;2022-08-04T20:02:01;8.82;;;2.20;;
31638;SDS011;18248;51.522;7.020;2022-08-04T20:05:00;8.63;;;2.25;;
31638;SDS011;18248;51.522;7.020;2022-08-04T20:07:59;7.32;;;2.47;;
31638;SDS011;18248;51.522;7.020;2022-08-04T20:10:57;5.35;;;2.25;;
31638;SDS011;18248;51.522;7.020;2022-08-04T20:13:57;8.60;;;2.22;;
31638;SDS011;18248;51.522;7.020;2022-08-04T20:16:55;10.18;;;2.30;;
31638;SDS011;18248;51.522;7.020;2022-08-04T20:19:55;12.00;;;3.20;;
31638;SDS011;18248;51.522;7.020;2022-08-04T20:22:54;13.10;;;2.90;;
31638;SDS011;18248;51.522;7.020;2022-08-04T20:25:52;10.38;;;2.63;;
31638;SDS011;18248;51.522;7.020;2022-08-04T20:28:51;8.77;;;2.75;;
31638;SDS011;18248;51.522;7.020;2022-08-04T20:31:49;9.15;;;2.83;;
31638;SDS011;18248;51.522;7.020;2022-08-04T20:34:52;9.70;;;2.35;;
31638;SDS011;18248;51.522;7.020;2022-08-04T20:37:52;5.75;;;2.08;;
31638;SDS011;18248;51.522;7.020;2022-08-04T20:40:50;6.95;;;2.38;;
31638;SDS011;18248;51.522;7.020;2022-08-04T20:43:49;6.25;;;2.63;;
31638;SDS011;18248;51.522;7.020;2022-08-04T20:46:48;8.48;;;2.65;;
31638;SDS011;18248;51.522;7.020;2022-08-04T20:49:46;9.20;;;2.85;;
31638;SDS011;18248;51.522;7.020;2022-08-04T20:52:45;6.15;;;2.53;;
31638;SDS011;18248;51.522;7.020;2022-08-04T20:55:44;6.35;;;2.40;;
31638;SDS011;18248;51.522;7.020;2022-08-04T20:58:43;8.40;;;2.65;;
31638;SDS011;18248;51.522;7.020;2022-08-04T21:01:41;10.05;;;2.22;;
31638;SDS011;18248;51.522;7.020;2022-08-04T21:04:40;6.28;;;1.98;;
31638;SDS011;18248;51.522;7.020;2022-08-04T21:07:39;7.07;;;1.73;;
31638;SDS011;18248;51.522;7.020;2022-08-04T21:10:38;6.22;;;1.70;;
31638;SDS011;18248;51.522;7.020;2022-08-04T21:13:36;4.97;;;1.63;;
31638;SDS011;18248;51.522;7.020;2022-08-04T21:16:35;6.20;;;1.67;;
31638;SDS011;18248;51.522;7.020;2022-08-04T21:19:33;3.28;;;1.13;;
31638;SDS011;18248;51.522;7.020;2022-08-04T21:22:32;6.07;;;1.35;;
31638;SDS011;18248;51.522;7.020;2022-08-04T21:25:31;7.22;;;1.60;;
31638;SDS011;18248;51.522;7.020;2022-08-04T21:28:30;8.07;;;1.80;;
31638;SDS011;18248;51.522;7.020;2022-08-04T21:31:29;3.08;;;1.55;;
31638;SDS011;18248;51.522;7.020;2022-08-04T21:34:27;3.55;;;1.40;;
31638;SDS011;18248;51.522;7.020;2022-08-04T21:37:26;4.20;;;1.45;;
31638;SDS011;18248;51.522;7.020;2022-08-04T21:40:25;7.43;;;1.52;;
31638;SDS011;18248;51.522;7.020;2022-08-04T21:43:24;9.18;;;1.55;;
31638;SDS011;18248;51.522;7.020;2022-08-04T21:46:23;3.63;;;1.30;;
31638;SDS011;18248;51.522;7.020;2022-08-04T21:49:21;3.20;;;1.33;;
31638;SDS011;18248;51.522;7.020;2022-08-04T21:52:20;6.30;;;1.77;;
31638;SDS011;18248;51.522;7.020;2022-08-04T21:55:19;3.67;;;1.60;;
31638;SDS011;18248;51.522;7.020;2022-08-04T21:58:17;6.13;;;1.80;;
31638;SDS011;18248;51.522;7.020;2022-08-04T22:01:16;4.78;;;1.33;;
31638;SDS011;18248;51.522;7.020;2022-08-04T22:04:14;4.85;;;1.45;;
31638;SDS011;18248;51.522;7.020;2022-08-04T22:07:14;5.95;;;1.55;;
31638;SDS011;18248;51.522;7.020;2022-08-04T22:10:13;5.32;;;1.73;;
31638;SDS011;18248;51.522;7.020;2022-08-04T22:13:12;4.25;;;1.58;;